sensor_id;sensor_type;location;lat;lon;timestamp;pressure;altitude;pressure_sealevel;temperature;humidity
7594;BME280;3838;43.124;25.686;2024-01-11T00:02:12;100584.75;;;17.30;59.31
7594;BME280;3838;43.124;25.686;2024-01-11T00:04:38;100583.88;;;17.30;59.06
7594;BME280;3838;43.124;25.686;2024-01-11T00:07:05;100583.00;;;17.29;58.83
7594;BME280;3838;43.124;25.686;2024-01-11T00:09:31;100574.56;;;17.30;58.77
7594;BME280;3838;43.124;25.686;2024-01-11T00:11:56;100579.66;;;17.30;59.22
7594;BME280;3838;43.124;25.686;2024-01-11T00:14:21;100583.16;;;17.32;58.81
7594;BME280;3838;43.124;25.686;2024-01-11T00:16:47;100583.97;;;17.31;58.98
7594;BME280;3838;43.124;25.686;2024-01-11T00:19:12;100585.63;;;17.31;59.05
7594;BME280;3838;43.124;25.686;2024-01-11T00:21:37;100584.03;;;17.33;58.82
7594;BME280;3838;43.124;25.686;2024-01-11T00:24:03;100578.94;;;17.33;59.11
7594;BME280;3838;43.124;25.686;2024-01-11T00:26:28;100574.66;;;17.32;59.02
7594;BME280;3838;43.124;25.686;2024-01-11T00:28:54;100585.78;;;17.34;58.85
7594;BME280;3838;43.124;25.686;2024-01-11T00:31:19;100581.41;;;17.31;59.04
7594;BME280;3838;43.124;25.686;2024-01-11T00:33:44;100582.38;;;17.33;59.13
7594;BME280;3838;43.124;25.686;2024-01-11T00:36:10;100584.91;;;17.33;58.98
7594;BME280;3838;43.124;25.686;2024-01-11T00:38:35;100579.75;;;17.32;58.61
7594;BME280;3838;43.124;25.686;2024-01-11T00:41:00;100582.38;;;17.33;58.91
7594;BME280;3838;43.124;25.686;2024-01-11T00:43:26;100577.34;;;17.35;59.10
7594;BME280;3838;43.124;25.686;2024-01-11T00:45:51;100573.94;;;17.34;58.72
7594;BME280;3838;43.124;25.686;2024-01-11T00:48:17;100576.47;;;17.34;58.72
7594;BME280;3838;43.124;25.686;2024-01-11T00:50:42;100568.84;;;17.34;58.69
7594;BME280;3838;43.124;25.686;2024-01-11T00:53:07;100564.63;;;17.35;58.87
7594;BME280;3838;43.124;25.686;2024-01-11T00:55:34;100562.94;;;17.35;59.27
7594;BME280;3838;43.124;25.686;2024-01-11T00:57:59;100557.84;;;17.35;58.69
7594;BME280;3838;43.124;25.686;2024-01-11T01:00:25;100557.78;;;17.34;58.70
7594;BME280;3838;43.124;25.686;2024-01-11T01:02:50;100557.84;;;17.35;58.79
7594;BME280;3838;43.124;25.686;2024-01-11T01:05:16;100555.31;;;17.35;58.96
7594;BME280;3838;43.124;25.686;2024-01-11T01:07:41;100554.44;;;17.35;58.81
7594;BME280;3838;43.124;25.686;2024-01-11T01:10:07;100548.53;;;17.36;59.01
7594;BME280;3838;43.124;25.686;2024-01-11T01:12:33;100548.53;;;17.36;58.83
7594;BME280;3838;43.124;25.686;2024-01-11T01:14:58;100544.25;;;17.35;58.80
7594;BME280;3838;43.124;25.686;2024-01-11T01:17:24;100536.34;;;17.30;58.96
7594;BME280;3838;43.124;25.686;2024-01-11T01:19:49;100533.09;;;17.33;58.87
7594;BME280;3838;43.124;25.686;2024-01-11T01:22:14;100526.25;;;17.32;59.05
7594;BME280;3838;43.124;25.686;2024-01-11T01:24:40;100522.13;;;17.34;58.64
7594;BME280;3838;43.124;25.686;2024-01-11T01:27:05;100522.13;;;17.34;58.97
7594;BME280;3838;43.124;25.686;2024-01-11T01:29:30;100514.41;;;17.32;58.70
7594;BME280;3838;43.124;25.686;2024-01-11T01:31:56;100507.63;;;17.33;58.66
7594;BME280;3838;43.124;25.686;2024-01-11T01:34:21;100498.25;;;17.32;58.93
7594;BME280;3838;43.124;25.686;2024-01-11T01:36:46;100505.09;;;17.33;58.56
7594;BME280;3838;43.124;25.686;2024-01-11T01:39:12;100502.53;;;17.33;58.88
7594;BME280;3838;43.124;25.686;2024-01-11T01:41:37;100500.06;;;17.34;58.83
7594;BME280;3838;43.124;25.686;2024-01-11T01:44:03;100500.06;;;17.34;58.79
7594;BME280;3838;43.124;25.686;2024-01-11T01:46:28;100489.88;;;17.34;58.97
7594;BME280;3838;43.124;25.686;2024-01-11T01:48:56;100488.13;;;17.33;58.42
7594;BME280;3838;43.124;25.686;2024-01-11T01:51:23;100464.66;;;17.23;58.70
7594;BME280;3838;43.124;25.686;2024-01-11T01:53:52;100476.91;;;17.30;58.94
7594;BME280;3838;43.124;25.686;2024-01-11T01:56:19;100472.69;;;17.30;58.79
7594;BME280;3838;43.124;25.686;2024-01-11T01:58:45;100466.88;;;17.33;58.75
7594;BME280;3838;43.124;25.686;2024-01-11T02:01:12;100466.72;;;17.30;58.96
7594;BME280;3838;43.124;25.686;2024-01-11T02:03:38;100472.78;;;17.32;59.00
7594;BME280;3838;43.124;25.686;2024-01-11T02:06:04;100467.75;;;17.33;58.69
7594;BME280;3838;43.124;25.686;2024-01-11T02:08:31;100461.78;;;17.33;58.83
7594;BME280;3838;43.124;25.686;2024-01-11T02:10:59;100463.63;;;17.35;58.95
7594;BME280;3838;43.124;25.686;2024-01-11T02:13:24;100458.44;;;17.34;58.74
7594;BME280;3838;43.124;25.686;2024-01-11T02:15:50;100450.81;;;17.34;58.29
7594;BME280;3838;43.124;25.686;2024-01-11T02:18:15;100450.81;;;17.34;58.82
7594;BME280;3838;43.124;25.686;2024-01-11T02:20:41;100450.00;;;17.35;58.69
7594;BME280;3838;43.124;25.686;2024-01-11T02:23:09;100440.53;;;17.32;58.48
7594;BME280;3838;43.124;25.686;2024-01-11T02:25:37;100453.34;;;17.34;58.68
7594;BME280;3838;43.124;25.686;2024-01-11T02:28:03;100443.16;;;17.34;58.57
7594;BME280;3838;43.124;25.686;2024-01-11T02:30:28;100447.38;;;17.33;58.87
7594;BME280;3838;43.124;25.686;2024-01-11T02:32:54;100440.63;;;17.34;58.66
7594;BME280;3838;43.124;25.686;2024-01-11T02:35:19;100451.69;;;17.34;58.68
7594;BME280;3838;43.124;25.686;2024-01-11T02:37:46;100444.03;;;17.34;58.42
7594;BME280;3838;43.124;25.686;2024-01-11T02:40:13;100444.03;;;17.34;58.89
7594;BME280;3838;43.124;25.686;2024-01-11T02:42:38;100438.06;;;17.34;58.53
7594;BME280;3838;43.124;25.686;2024-01-11T02:45:04;100431.22;;;17.33;58.48
7594;BME280;3838;43.124;25.686;2024-01-11T02:47:30;100431.94;;;17.30;58.70
7594;BME280;3838;43.124;25.686;2024-01-11T02:49:55;100436.31;;;17.33;58.85
7594;BME280;3838;43.124;25.686;2024-01-11T02:52:22;100433.84;;;17.34;58.83
7594;BME280;3838;43.124;25.686;2024-01-11T02:54:48;100427.88;;;17.34;58.74
7594;BME280;3838;43.124;25.686;2024-01-11T02:57:13;100424.31;;;17.30;58.41
7594;BME280;3838;43.124;25.686;2024-01-11T02:59:40;100416.03;;;17.34;58.45
7594;BME280;3838;43.124;25.686;2024-01-11T03:02:05;100408.22;;;17.31;58.89
7594;BME280;3838;43.124;25.686;2024-01-11T03:04:31;100413.47;;;17.34;58.55
7594;BME280;3838;43.124;25.686;2024-01-11T03:06:56;100407.44;;;17.32;58.70
7594;BME280;3838;43.124;25.686;2024-01-11T03:09:22;100407.50;;;17.34;58.69
7594;BME280;3838;43.124;25.686;2024-01-11T03:11:47;100410.84;;;17.33;58.35
7594;BME280;3838;43.124;25.686;2024-01-11T03:14:12;100400.66;;;17.33;58.76
7594;BME280;3838;43.124;25.686;2024-01-11T03:16:38;100398.03;;;17.31;58.43
7594;BME280;3838;43.124;25.686;2024-01-11T03:19:05;100404.97;;;17.34;58.67
7594;BME280;3838;43.124;25.686;2024-01-11T03:21:30;100393.75;;;17.30;58.45
7594;BME280;3838;43.124;25.686;2024-01-11T03:23:56;100404.00;;;17.32;58.35
7594;BME280;3838;43.124;25.686;2024-01-11T03:26:22;100396.38;;;17.32;58.19
7594;BME280;3838;43.124;25.686;2024-01-11T03:28:47;100396.44;;;17.33;58.53
7594;BME280;3838;43.124;25.686;2024-01-11T03:31:13;100393.91;;;17.33;58.30
7594;BME280;3838;43.124;25.686;2024-01-11T03:33:39;100386.97;;;17.31;58.59
7594;BME280;3838;43.124;25.686;2024-01-11T03:36:08;100381.09;;;17.32;58.29
7594;BME280;3838;43.124;25.686;2024-01-11T03:38:34;100382.84;;;17.33;58.14
7594;BME280;3838;43.124;25.686;2024-01-11T03:41:00;100382.03;;;17.34;58.27
7594;BME280;3838;43.124;25.686;2024-01-11T03:43:25;100382.75;;;17.31;58.33
7594;BME280;3838;43.124;25.686;2024-01-11T03:45:50;100372.41;;;17.28;58.24
7594;BME280;3838;43.124;25.686;2024-01-11T03:48:16;100378.53;;;17.32;58.29
7594;BME280;3838;43.124;25.686;2024-01-11T03:50:41;100376.88;;;17.32;58.50
7594;BME280;3838;43.124;25.686;2024-01-11T03:53:07;100362.38;;;17.31;58.21
7594;BME280;3838;43.124;25.686;2024-01-11T03:55:33;100369.22;;;17.32;58.33
7594;BME280;3838;43.124;25.686;2024-01-11T03:57:58;100365.00;;;17.33;58.25
7594;BME280;3838;43.124;25.686;2024-01-11T04:00:24;100360.72;;;17.32;58.27
7594;BME280;3838;43.124;25.686;2024-01-11T04:02:49;100356.50;;;17.32;58.53
7594;BME280;3838;43.124;25.686;2024-01-11T04:05:14;100349.66;;;17.31;58.57
7594;BME280;3838;43.124;25.686;2024-01-11T04:07:41;100354.09;;;17.35;58.63
7594;BME280;3838;43.124;25.686;2024-01-11T04:10:06;100345.50;;;17.33;58.74
7594;BME280;3838;43.124;25.686;2024-01-11T04:12:35;100337.88;;;17.33;58.62
7594;BME280;3838;43.124;25.686;2024-01-11T04:15:01;100338.66;;;17.32;58.39
7594;BME280;3838;43.124;25.686;2024-01-11T04:17:26;100338.59;;;17.31;58.76
7594;BME280;3838;43.124;25.686;2024-01-11T04:19:51;100333.56;;;17.32;58.47
7594;BME280;3838;43.124;25.686;2024-01-11T04:22:17;100341.22;;;17.32;58.32
7594;BME280;3838;43.124;25.686;2024-01-11T04:24:43;100341.22;;;17.32;58.48
7594;BME280;3838;43.124;25.686;2024-01-11T04:27:08;100336.13;;;17.32;58.69
7594;BME280;3838;43.124;25.686;2024-01-11T04:29:34;100337.78;;;17.32;58.50
7594;BME280;3838;43.124;25.686;2024-01-11T04:31:59;100342.00;;;17.31;58.44
7594;BME280;3838;43.124;25.686;2024-01-11T04:34:24;100332.69;;;17.32;58.28
7594;BME280;3838;43.124;25.686;2024-01-11T04:36:50;100334.38;;;17.31;58.25
7594;BME280;3838;43.124;25.686;2024-01-11T04:39:15;100328.25;;;17.28;58.57
7594;BME280;3838;43.124;25.686;2024-01-11T04:41:41;100340.25;;;17.30;58.38
7594;BME280;3838;43.124;25.686;2024-01-11T04:44:06;100336.13;;;17.32;58.70
7594;BME280;3838;43.124;25.686;2024-01-11T04:46:32;100333.56;;;17.32;58.43
7594;BME280;3838;43.124;25.686;2024-01-11T04:48:57;100324.97;;;17.30;58.44
7594;BME280;3838;43.124;25.686;2024-01-11T04:51:23;100325.06;;;17.32;58.44
7594;BME280;3838;43.124;25.686;2024-01-11T04:53:48;100336.03;;;17.31;58.17
7594;BME280;3838;43.124;25.686;2024-01-11T04:56:15;100324.97;;;17.30;58.62
7594;BME280;3838;43.124;25.686;2024-01-11T04:58:41;100324.03;;;17.28;58.37
7594;BME280;3838;43.124;25.686;2024-01-11T05:01:11;100321.47;;;17.28;58.53
7594;BME280;3838;43.124;25.686;2024-01-11T05:03:37;100313.84;;;17.28;58.77
7594;BME280;3838;43.124;25.686;2024-01-11T05:06:02;100311.13;;;17.25;58.55
7594;BME280;3838;43.124;25.686;2024-01-11T05:08:28;100317.91;;;17.25;58.32
7594;BME280;3838;43.124;25.686;2024-01-11T05:10:54;100315.28;;;17.23;58.83
7594;BME280;3838;43.124;25.686;2024-01-11T05:13:19;100317.97;;;17.26;58.73
7594;BME280;3838;43.124;25.686;2024-01-11T05:15:45;100317.03;;;17.24;59.12
7594;BME280;3838;43.124;25.686;2024-01-11T05:18:11;100309.41;;;17.24;58.74
7594;BME280;3838;43.124;25.686;2024-01-11T05:20:37;100307.72;;;17.25;58.75
7594;BME280;3838;43.124;25.686;2024-01-11T05:23:02;100300.09;;;17.25;58.59
7594;BME280;3838;43.124;25.686;2024-01-11T05:25:29;100308.66;;;17.27;59.03
7594;BME280;3838;43.124;25.686;2024-01-11T05:27:56;100307.06;;;17.29;58.96
7594;BME280;3838;43.124;25.686;2024-01-11T05:30:21;100307.00;;;17.27;58.76
7594;BME280;3838;43.124;25.686;2024-01-11T05:32:47;100302.69;;;17.26;58.97
7594;BME280;3838;43.124;25.686;2024-01-11T05:35:12;100302.69;;;17.26;58.68
7594;BME280;3838;43.124;25.686;2024-01-11T05:37:38;100297.59;;;17.26;58.34
7594;BME280;3838;43.124;25.686;2024-01-11T05:40:03;100295.88;;;17.25;58.73
7594;BME280;3838;43.124;25.686;2024-01-11T05:42:29;100296.66;;;17.24;58.46
7594;BME280;3838;43.124;25.686;2024-01-11T05:44:54;100297.47;;;17.23;58.71
7594;BME280;3838;43.124;25.686;2024-01-11T05:47:19;100293.25;;;17.24;58.93
7594;BME280;3838;43.124;25.686;2024-01-11T05:49:45;100293.16;;;17.22;58.92
7594;BME280;3838;43.124;25.686;2024-01-11T05:52:10;100281.72;;;17.14;55.99
7594;BME280;3838;43.124;25.686;2024-01-11T05:54:36;100284.34;;;17.15;57.45
7594;BME280;3838;43.124;25.686;2024-01-11T05:57:01;100282.69;;;17.16;57.26
7594;BME280;3838;43.124;25.686;2024-01-11T05:59:27;100289.44;;;17.15;57.52
7594;BME280;3838;43.124;25.686;2024-01-11T06:01:52;100284.34;;;17.15;57.62
7594;BME280;3838;43.124;25.686;2024-01-11T06:04:18;100275.03;;;17.16;57.36
7594;BME280;3838;43.124;25.686;2024-01-11T06:06:43;100280.94;;;17.15;57.60
7594;BME280;3838;43.124;25.686;2024-01-11T06:09:08;100277.50;;;17.14;57.36
7594;BME280;3838;43.124;25.686;2024-01-11T06:11:35;100270.75;;;17.15;57.29
7594;BME280;3838;43.124;25.686;2024-01-11T06:14:00;100273.22;;;17.13;57.52
7594;BME280;3838;43.124;25.686;2024-01-11T06:16:26;100266.44;;;17.14;57.86
7594;BME280;3838;43.124;25.686;2024-01-11T06:18:51;100265.66;;;17.15;57.67
7594;BME280;3838;43.124;25.686;2024-01-11T06:21:17;100258.81;;;17.14;57.85
7594;BME280;3838;43.124;25.686;2024-01-11T06:23:43;100256.13;;;17.11;57.90
7594;BME280;3838;43.124;25.686;2024-01-11T06:26:09;100252.75;;;17.12;56.57
7594;BME280;3838;43.124;25.686;2024-01-11T06:28:34;100250.06;;;17.09;57.67
7594;BME280;3838;43.124;25.686;2024-01-11T06:30:59;100244.97;;;17.09;57.30
7594;BME280;3838;43.124;25.686;2024-01-11T06:33:25;100242.44;;;17.09;57.64
7594;BME280;3838;43.124;25.686;2024-01-11T06:35:50;100244.09;;;17.08;57.41
7594;BME280;3838;43.124;25.686;2024-01-11T06:38:16;100238.22;;;17.09;57.47
7594;BME280;3838;43.124;25.686;2024-01-11T06:40:41;100239.00;;;17.08;57.97
7594;BME280;3838;43.124;25.686;2024-01-11T06:43:08;100238.22;;;17.09;57.57
7594;BME280;3838;43.124;25.686;2024-01-11T06:45:33;100239.97;;;17.10;57.73
7594;BME280;3838;43.124;25.686;2024-01-11T06:47:58;100232.31;;;17.10;57.36
7594;BME280;3838;43.124;25.686;2024-01-11T06:50:24;100234.00;;;17.10;57.74
7594;BME280;3838;43.124;25.686;2024-01-11T06:52:49;100235.66;;;17.09;57.86
7594;BME280;3838;43.124;25.686;2024-01-11T06:55:15;100239.09;;;17.10;57.91
7594;BME280;3838;43.124;25.686;2024-01-11T06:57:40;100234.00;;;17.10;57.73
7594;BME280;3838;43.124;25.686;2024-01-11T07:00:06;100224.50;;;16.90;51.09
7594;BME280;3838;43.124;25.686;2024-01-11T07:02:32;100232.47;;;16.79;54.42
7594;BME280;3838;43.124;25.686;2024-01-11T07:04:58;100230.06;;;16.82;55.62
7594;BME280;3838;43.124;25.686;2024-01-11T07:07:23;100225.38;;;16.90;55.55
7594;BME280;3838;43.124;25.686;2024-01-11T07:09:49;100217.97;;;16.95;55.65
7594;BME280;3838;43.124;25.686;2024-01-11T07:12:14;100219.00;;;16.98;55.84
7594;BME280;3838;43.124;25.686;2024-01-11T07:14:39;100220.97;;;17.04;55.72
7594;BME280;3838;43.124;25.686;2024-01-11T07:17:05;100222.78;;;17.06;56.61
7594;BME280;3838;43.124;25.686;2024-01-11T07:19:31;100225.34;;;17.06;56.46
7594;BME280;3838;43.124;25.686;2024-01-11T07:21:56;100222.22;;;17.12;56.78
7594;BME280;3838;43.124;25.686;2024-01-11T07:24:22;100229.94;;;17.13;56.62
7594;BME280;3838;43.124;25.686;2024-01-11T07:26:47;100223.09;;;17.12;56.77
7594;BME280;3838;43.124;25.686;2024-01-11T07:29:14;100212.53;;;17.05;56.82
7594;BME280;3838;43.124;25.686;2024-01-11T07:31:39;100222.06;;;17.09;56.70
7594;BME280;3838;43.124;25.686;2024-01-11T07:34:05;100228.03;;;17.09;57.05
7594;BME280;3838;43.124;25.686;2024-01-11T07:36:30;100234.00;;;17.10;56.94
7594;BME280;3838;43.124;25.686;2024-01-11T07:38:56;100224.69;;;17.10;57.38
7594;BME280;3838;43.124;25.686;2024-01-11T07:41:22;100225.41;;;17.08;57.16
7594;BME280;3838;43.124;25.686;2024-01-11T07:43:47;100233.19;;;17.11;57.17
7594;BME280;3838;43.124;25.686;2024-01-11T07:46:13;100224.69;;;17.10;56.91
7594;BME280;3838;43.124;25.686;2024-01-11T07:48:38;100223.00;;;17.11;57.32
7594;BME280;3838;43.124;25.686;2024-01-11T07:51:04;100212.81;;;17.11;57.17
7594;BME280;3838;43.124;25.686;2024-01-11T07:53:30;100216.25;;;17.11;57.16
7594;BME280;3838;43.124;25.686;2024-01-11T07:55:57;100212.03;;;17.12;57.33
7594;BME280;3838;43.124;25.686;2024-01-11T07:58:22;100215.44;;;17.12;57.12
7594;BME280;3838;43.124;25.686;2024-01-11T08:00:48;100222.22;;;17.12;57.51
7594;BME280;3838;43.124;25.686;2024-01-11T08:03:14;100223.97;;;17.13;57.51
7594;BME280;3838;43.124;25.686;2024-01-11T08:05:39;100218.94;;;17.14;57.01
7594;BME280;3838;43.124;25.686;2024-01-11T08:08:05;100215.53;;;17.14;57.26
7594;BME280;3838;43.124;25.686;2024-01-11T08:10:30;100221.41;;;17.13;57.25
7594;BME280;3838;43.124;25.686;2024-01-11T08:12:56;100220.69;;;17.15;57.26
7594;BME280;3838;43.124;25.686;2024-01-11T08:15:22;100224.13;;;17.16;57.21
7594;BME280;3838;43.124;25.686;2024-01-11T08:17:47;100222.38;;;17.15;57.29
7594;BME280;3838;43.124;25.686;2024-01-11T08:20:13;100208.47;;;17.08;57.27
7594;BME280;3838;43.124;25.686;2024-01-11T08:22:40;100216.25;;;17.11;57.32
7594;BME280;3838;43.124;25.686;2024-01-11T08:25:06;100224.69;;;17.10;57.55
7594;BME280;3838;43.124;25.686;2024-01-11T08:27:32;100212.81;;;17.11;57.92
7594;BME280;3838;43.124;25.686;2024-01-11T08:29:58;100209.25;;;17.07;57.72
7594;BME280;3838;43.124;25.686;2024-01-11T08:32:25;100205.03;;;17.08;57.69
7594;BME280;3838;43.124;25.686;2024-01-11T08:34:50;100207.59;;;17.08;57.70
7594;BME280;3838;43.124;25.686;2024-01-11T08:37:16;100210.13;;;17.08;57.85
7594;BME280;3838;43.124;25.686;2024-01-11T08:39:41;100206.72;;;17.07;57.72
7594;BME280;3838;43.124;25.686;2024-01-11T08:42:07;100203.16;;;17.04;57.96
7594;BME280;3838;43.124;25.686;2024-01-11T08:44:34;100198.94;;;17.04;57.91
7594;BME280;3838;43.124;25.686;2024-01-11T08:46:59;100193.84;;;17.04;57.99
7594;BME280;3838;43.124;25.686;2024-01-11T08:49:25;100192.09;;;17.03;57.81
7594;BME280;3838;43.124;25.686;2024-01-11T08:51:51;100186.13;;;17.03;57.58
7594;BME280;3838;43.124;25.686;2024-01-11T08:54:16;100173.41;;;17.03;57.97
7594;BME280;3838;43.124;25.686;2024-01-11T08:56:42;100181.03;;;17.03;57.95
7594;BME280;3838;43.124;25.686;2024-01-11T08:59:08;100174.91;;;16.99;57.92
7594;BME280;3838;43.124;25.686;2024-01-11T09:01:36;100171.56;;;17.00;57.72
7594;BME280;3838;43.124;25.686;2024-01-11T09:04:02;100171.56;;;17.00;57.61
7594;BME280;3838;43.124;25.686;2024-01-11T09:06:29;100166.34;;;16.97;57.64
7594;BME280;3838;43.124;25.686;2024-01-11T09:08:54;100170.63;;;16.98;57.82
7594;BME280;3838;43.124;25.686;2024-01-11T09:11:20;100159.50;;;16.96;57.89
7594;BME280;3838;43.124;25.686;2024-01-11T09:13:45;100163.78;;;16.97;57.88
7594;BME280;3838;43.124;25.686;2024-01-11T09:16:15;100149.25;;;16.95;57.96
7594;BME280;3838;43.124;25.686;2024-01-11T09:18:40;100150.19;;;16.97;58.42
7594;BME280;3838;43.124;25.686;2024-01-11T09:21:06;100141.75;;;16.98;58.15
7594;BME280;3838;43.124;25.686;2024-01-11T09:23:31;100136.66;;;16.98;58.32
7594;BME280;3838;43.124;25.686;2024-01-11T09:25:57;100136.66;;;16.98;58.90
7594;BME280;3838;43.124;25.686;2024-01-11T09:28:22;100125.69;;;16.99;58.49
7594;BME280;3838;43.124;25.686;2024-01-11T09:30:47;100121.41;;;16.98;59.08
7594;BME280;3838;43.124;25.686;2024-01-11T09:33:13;100117.97;;;16.97;58.81
7594;BME280;3838;43.124;25.686;2024-01-11T09:35:38;100112.97;;;16.99;59.01
7594;BME280;3838;43.124;25.686;2024-01-11T09:38:04;100107.88;;;16.99;59.12
7594;BME280;3838;43.124;25.686;2024-01-11T09:40:30;100107.88;;;16.99;59.34
7594;BME280;3838;43.124;25.686;2024-01-11T09:42:56;100101.91;;;16.98;59.15
7594;BME280;3838;43.124;25.686;2024-01-11T09:45:22;100096.81;;;16.98;59.59
7594;BME280;3838;43.124;25.686;2024-01-11T09:47:49;100097.69;;;16.99;59.60
7594;BME280;3838;43.124;25.686;2024-01-11T09:50:16;100086.56;;;16.97;59.25
7594;BME280;3838;43.124;25.686;2024-01-11T09:52:49;100082.13;;;16.93;59.69
7594;BME280;3838;43.124;25.686;2024-01-11T09:55:16;100087.44;;;16.97;59.93
7594;BME280;3838;43.124;25.686;2024-01-11T09:57:45;100086.56;;;16.97;59.86
7594;BME280;3838;43.124;25.686;2024-01-11T10:00:19;100080.53;;;16.95;59.90
7594;BME280;3838;43.124;25.686;2024-01-11T10:02:47;100077.25;;;16.97;59.86
7594;BME280;3838;43.124;25.686;2024-01-11T10:05:12;100071.22;;;16.95;60.03
7594;BME280;3838;43.124;25.686;2024-01-11T10:07:39;100072.09;;;16.96;59.88
7594;BME280;3838;43.124;25.686;2024-01-11T10:10:05;100062.78;;;16.96;60.10
7594;BME280;3838;43.124;25.686;2024-01-11T10:12:34;100054.41;;;16.99;60.49
7594;BME280;3838;43.124;25.686;2024-01-11T10:15:06;100051.94;;;17.00;60.34
7594;BME280;3838;43.124;25.686;2024-01-11T10:17:43;100046.06;;;17.01;60.61
7594;BME280;3838;43.124;25.686;2024-01-11T10:20:10;100035.06;;;17.02;60.53
7594;BME280;3838;43.124;25.686;2024-01-11T10:22:36;100030.84;;;17.03;60.52
7594;BME280;3838;43.124;25.686;2024-01-11T10:25:13;100034.28;;;17.03;60.68
7594;BME280;3838;43.124;25.686;2024-01-11T10:27:42;100024.81;;;17.01;60.84
7594;BME280;3838;43.124;25.686;2024-01-11T10:30:10;100029.19;;;17.03;60.86
7594;BME280;3838;43.124;25.686;2024-01-11T10:32:35;100033.47;;;17.04;61.05
7594;BME280;3838;43.124;25.686;2024-01-11T10:35:01;100030.06;;;17.04;60.42
7594;BME280;3838;43.124;25.686;2024-01-11T10:37:31;100019.16;;;17.06;60.45
7594;BME280;3838;43.124;25.686;2024-01-11T10:39:58;100026.78;;;17.06;60.59
7594;BME280;3838;43.124;25.686;2024-01-11T10:42:24;100017.47;;;17.07;60.90
7594;BME280;3838;43.124;25.686;2024-01-11T10:44:54;99997.47;;;16.97;60.94
7594;BME280;3838;43.124;25.686;2024-01-11T10:47:24;100008.97;;;17.06;60.71
7594;BME280;3838;43.124;25.686;2024-01-11T10:49:56;99999.66;;;17.07;60.72
7594;BME280;3838;43.124;25.686;2024-01-11T10:52:26;100003.94;;;17.08;60.42
7594;BME280;3838;43.124;25.686;2024-01-11T10:54:54;99987.88;;;17.09;60.43
7594;BME280;3838;43.124;25.686;2024-01-11T10:57:21;99985.25;;;17.07;60.49
7594;BME280;3838;43.124;25.686;2024-01-11T10:59:48;99975.06;;;17.07;60.82
7594;BME280;3838;43.124;25.686;2024-01-11T11:02:14;99974.19;;;17.07;60.72
7594;BME280;3838;43.124;25.686;2024-01-11T11:04:41;99968.31;;;17.08;60.56
7594;BME280;3838;43.124;25.686;2024-01-11T11:07:08;99967.50;;;17.09;60.64
7594;BME280;3838;43.124;25.686;2024-01-11T11:09:35;99955.50;;;17.06;60.79
7594;BME280;3838;43.124;25.686;2024-01-11T11:12:01;99952.22;;;17.09;60.83
7594;BME280;3838;43.124;25.686;2024-01-11T11:14:29;99952.22;;;17.09;61.03
7594;BME280;3838;43.124;25.686;2024-01-11T11:16:57;99943.66;;;17.07;60.79
7594;BME280;3838;43.124;25.686;2024-01-11T11:19:23;99938.69;;;17.10;60.65
7594;BME280;3838;43.124;25.686;2024-01-11T11:21:49;99942.84;;;17.08;61.11
7594;BME280;3838;43.124;25.686;2024-01-11T11:24:16;99934.41;;;17.09;60.53
7594;BME280;3838;43.124;25.686;2024-01-11T11:26:42;99933.59;;;17.10;60.96
7594;BME280;3838;43.124;25.686;2024-01-11T11:29:08;99924.16;;;17.07;60.65
7594;BME280;3838;43.124;25.686;2024-01-11T11:31:35;99919.19;;;17.10;60.80
7594;BME280;3838;43.124;25.686;2024-01-11T11:34:01;99912.38;;;17.09;60.90
7594;BME280;3838;43.124;25.686;2024-01-11T11:36:29;99903.06;;;17.10;60.73
7594;BME280;3838;43.124;25.686;2024-01-11T11:38:56;99900.50;;;17.10;60.98
7594;BME280;3838;43.124;25.686;2024-01-11T11:41:26;99892.88;;;17.10;60.80
7594;BME280;3838;43.124;25.686;2024-01-11T11:43:52;99887.78;;;17.10;60.76
7594;BME280;3838;43.124;25.686;2024-01-11T11:46:18;99891.19;;;17.10;60.54
7594;BME280;3838;43.124;25.686;2024-01-11T11:48:49;99880.16;;;17.10;60.45
7594;BME280;3838;43.124;25.686;2024-01-11T11:51:20;99875.94;;;17.10;60.69
7594;BME280;3838;43.124;25.686;2024-01-11T11:53:47;99864.88;;;17.10;60.52
7594;BME280;3838;43.124;25.686;2024-01-11T11:56:22;99858.91;;;17.09;60.43
7594;BME280;3838;43.124;25.686;2024-01-11T11:58:49;99852.94;;;17.09;60.64
7594;BME280;3838;43.124;25.686;2024-01-11T12:01:18;99852.75;;;17.04;60.67
7594;BME280;3838;43.124;25.686;2024-01-11T12:03:44;99857.09;;;17.07;60.89
7594;BME280;3838;43.124;25.686;2024-01-11T12:06:18;99849.81;;;17.14;62.01
7594;BME280;3838;43.124;25.686;2024-01-11T12:08:45;99844.84;;;17.17;61.91
7594;BME280;3838;43.124;25.686;2024-01-11T12:11:18;99845.03;;;17.22;61.69
7594;BME280;3838;43.124;25.686;2024-01-11T12:13:44;99836.59;;;17.23;61.41
7594;BME280;3838;43.124;25.686;2024-01-11T12:16:10;99833.25;;;17.24;61.57
7594;BME280;3838;43.124;25.686;2024-01-11T12:18:36;99825.66;;;17.26;61.19
7594;BME280;3838;43.124;25.686;2024-01-11T12:21:01;99834.19;;;17.26;61.19
7594;BME280;3838;43.124;25.686;2024-01-11T12:23:27;99821.50;;;17.28;61.56
7594;BME280;3838;43.124;25.686;2024-01-11T12:25:56;99823.13;;;17.26;61.29
7594;BME280;3838;43.124;25.686;2024-01-11T12:28:22;99829.22;;;17.29;61.12
7594;BME280;3838;43.124;25.686;2024-01-11T12:30:48;99822.44;;;17.30;61.32
7594;BME280;3838;43.124;25.686;2024-01-11T12:33:13;99818.22;;;17.30;61.25
7594;BME280;3838;43.124;25.686;2024-01-11T12:35:39;99808.03;;;17.30;61.20
7594;BME280;3838;43.124;25.686;2024-01-11T12:38:06;99801.22;;;17.29;61.35
7594;BME280;3838;43.124;25.686;2024-01-11T12:40:35;99793.44;;;17.26;61.14
7594;BME280;3838;43.124;25.686;2024-01-11T12:43:06;99785.00;;;17.27;61.07
7594;BME280;3838;43.124;25.686;2024-01-11T12:45:33;99793.63;;;17.31;61.33
7594;BME280;3838;43.124;25.686;2024-01-11T12:47:59;99780.03;;;17.30;61.12
7594;BME280;3838;43.124;25.686;2024-01-11T12:50:29;99776.81;;;17.34;61.96
7594;BME280;3838;43.124;25.686;2024-01-11T12:53:13;99781.75;;;17.71;61.84
7594;BME280;3838;43.124;25.686;2024-01-11T12:55:46;99776.63;;;17.92;59.73
7594;BME280;3838;43.124;25.686;2024-01-11T12:58:12;99767.84;;;17.65;60.30